Time;durP1;ratioP1;P1;durP2;ratioP2;P2;SDS_P1;SDS_P2;PMS_P1;PMS_P2;Temp;Humidity;BMP_temperature;BMP_pressure;BME280_temperature;BME280_humidity;BME280_pressure;Samples;Min_cycle;Max_cycle;Signal;HPM_P1;HPM_P2
2022/08/10 00:01:45;;;;;;;6.90;2.50;;;16.60;60.70;;;;;;5146469;27;20282;-87
2022/08/10 00:04:12;;;;;;;3.15;2.63;;;16.50;62.50;;;;;;5143640;27;20216;-87
2022/08/10 00:06:40;;;;;;;4.35;2.72;;;16.60;64.00;;;;;;5137001;27;20195;-87
2022/08/10 00:09:10;;;;;;;3.25;2.65;;;16.60;63.30;;;;;;5139960;27;20198;-87
2022/08/10 00:11:37;;;;;;;4.60;2.80;;;16.60;63.00;;;;;;5134479;27;20694;-87
2022/08/10 00:14:04;;;;;;;3.53;2.47;;;16.60;61.10;;;;;;5139022;27;20203;-86
2022/08/10 00:16:32;;;;;;;2.95;2.63;;;16.70;60.90;;;;;;5134906;27;20204;-86
2022/08/10 00:18:59;;;;;;;4.65;2.70;;;16.70;60.00;;;;;;5133404;27;20204;-86
2022/08/10 00:21:26;;;;;;;4.68;2.90;;;16.80;60.10;;;;;;5116684;27;20795;-86
2022/08/10 00:23:53;;;;;;;4.50;2.67;;;16.70;59.80;;;;;;5133226;27;20239;-86
2022/08/10 00:26:22;;;;;;;5.25;2.63;;;16.70;60.10;;;;;;5140643;27;20285;-86
2022/08/10 00:28:49;;;;;;;3.88;2.80;;;16.70;60.00;;;;;;5132461;27;20218;-86
2022/08/10 00:31:16;;;;;;;4.35;2.70;;;16.70;59.70;;;;;;5132173;27;20221;-86
2022/08/10 00:33:44;;;;;;;2.88;2.38;;;16.60;60.10;;;;;;5132751;27;20217;-87
2022/08/10 00:36:16;;;;;;;2.92;2.58;;;16.70;59.40;;;;;;5117367;27;20203;-87
2022/08/10 00:38:46;;;;;;;3.97;2.75;;;16.60;60.10;;;;;;5126410;27;20202;-87
2022/08/10 00:41:13;;;;;;;6.85;3.00;;;16.60;59.10;;;;;;5121111;27;20307;-87
2022/08/10 00:43:40;;;;;;;4.85;2.83;;;16.60;59.80;;;;;;5115895;27;20225;-87
2022/08/10 00:46:07;;;;;;;5.57;3.10;;;16.60;61.50;;;;;;5118839;27;20205;-87
2022/08/10 00:48:34;;;;;;;5.90;2.90;;;16.50;61.00;;;;;;5131088;27;20199;-87
2022/08/10 00:51:02;;;;;;;5.45;2.70;;;16.50;60.30;;;;;;5129192;27;20212;-87
2022/08/10 00:53:29;;;;;;;5.68;3.08;;;16.50;60.60;;;;;;5116949;27;20204;-87
2022/08/10 00:55:56;;;;;;;7.82;2.97;;;16.40;60.70;;;;;;5122482;27;20199;-87
2022/08/10 00:58:23;;;;;;;6.72;3.13;;;16.40;60.60;;;;;;5132614;27;20200;-87
2022/08/10 01:00:50;;;;;;;7.70;3.10;;;16.40;60.90;;;;;;5122778;27;20222;-87
2022/08/10 01:03:17;;;;;;;6.20;3.20;;;16.40;60.70;;;;;;5132578;27;20210;-87
2022/08/10 01:05:51;;;;;;;4.80;3.28;;;16.50;62.60;;;;;;5132626;27;20199;-87
2022/08/10 01:08:29;;;;;;;4.45;2.92;;;16.40;61.40;;;;;;5116715;27;20214;-87
2022/08/10 01:11:03;;;;;;;8.40;3.10;;;16.40;62.70;;;;;;5130514;27;20549;-87
2022/08/10 01:13:37;;;;;;;5.18;3.05;;;16.40;63.10;;;;;;5116883;27;20218;-86
2022/08/10 01:16:13;;;;;;;3.30;2.90;;;16.40;64.10;;;;;;5139888;27;20217;-87
2022/08/10 01:18:46;;;;;;;10.70;2.97;;;16.40;64.10;;;;;;5131619;28;20187;-87
2022/08/10 01:21:33;;;;;;;3.38;3.00;;;16.30;66.00;;;;;;5132674;27;20199;-87
2022/08/10 01:24:17;;;;;;;4.15;3.03;;;16.30;65.50;;;;;;5126211;27;20207;-87
2022/08/10 01:26:57;;;;;;;3.28;2.97;;;16.30;65.90;;;;;;5125517;28;20206;-87
2022/08/10 01:29:48;;;;;;;3.63;2.90;;;16.20;66.70;;;;;;5119760;27;20610;-87
2022/08/10 01:32:16;;;;;;;6.97;3.28;;;16.20;67.00;;;;;;5130868;27;20221;-87
2022/08/10 01:34:50;;;;;;;4.60;3.20;;;16.20;67.70;;;;;;5123496;27;20200;-87
2022/08/10 01:37:22;;;;;;;4.63;3.13;;;16.20;67.90;;;;;;5127324;27;20268;-87
2022/08/10 01:39:54;;;;;;;3.75;2.97;;;16.20;68.60;;;;;;5130983;27;20199;-87
2022/08/10 01:42:22;;;;;;;3.30;3.00;;;16.10;69.00;;;;;;5129716;27;20203;-87
2022/08/10 01:44:55;;;;;;;6.78;3.58;;;16.10;69.20;;;;;;5130642;27;20222;-87
2022/08/10 01:50:17;;;;;;;6.78;3.38;;;16.00;70.40;;;;;;5138745;27;20202;-86
2022/08/10 01:52:46;;;;;;;4.18;3.17;;;15.90;70.30;;;;;;5134581;27;20657;-87
2022/08/10 01:55:15;;;;;;;3.63;3.33;;;15.90;71.50;;;;;;5135371;27;20202;-87
2022/08/10 01:57:44;;;;;;;4.57;3.22;;;15.90;72.00;;;;;;5119999;27;20553;-87
2022/08/10 02:00:13;;;;;;;3.67;3.28;;;15.90;71.20;;;;;;5135545;27;20191;-87
2022/08/10 02:02:42;;;;;;;3.65;3.20;;;15.90;70.60;;;;;;5123919;27;20199;-87
2022/08/10 02:05:11;;;;;;;6.55;3.10;;;15.90;69.50;;;;;;5126903;27;20215;-87
2022/08/10 02:07:40;;;;;;;9.25;3.40;;;15.90;69.00;;;;;;5143176;27;20202;-87
2022/08/10 02:10:19;;;;;;;5.38;3.17;;;15.90;69.20;;;;;;5150457;27;20617;-87
2022/08/10 02:12:47;;;;;;;7.45;3.13;;;15.90;69.40;;;;;;5131856;27;20195;-87
2022/08/10 02:15:18;;;;;;;4.90;3.50;;;15.90;70.00;;;;;;5139516;27;20198;-87
2022/08/10 02:17:49;;;;;;;5.10;3.20;;;15.80;69.70;;;;;;5141070;27;20195;-87
2022/08/10 02:20:20;;;;;;;4.22;2.97;;;15.80;71.20;;;;;;5130183;27;20206;-87
2022/08/10 02:22:50;;;;;;;5.00;3.42;;;15.80;71.30;;;;;;5135534;27;20200;-87
2022/08/10 02:25:19;;;;;;;3.85;3.28;;;15.70;71.40;;;;;;5133988;27;20646;-87
2022/08/10 02:27:48;;;;;;;6.05;3.25;;;15.70;72.20;;;;;;5131439;27;20207;-87
2022/08/10 02:30:17;;;;;;;3.50;3.17;;;15.70;72.40;;;;;;5143821;27;20650;-86
2022/08/10 02:32:45;;;;;;;5.32;2.72;;;15.60;72.60;;;;;;5132469;27;20229;-86
2022/08/10 02:35:19;;;;;;;4.57;3.40;;;15.60;72.70;;;;;;5138099;27;20286;-86
2022/08/10 02:37:49;;;;;;;5.57;3.20;;;15.60;72.70;;;;;;5143509;27;20205;-87
2022/08/10 02:40:17;;;;;;;3.42;3.05;;;15.60;73.00;;;;;;5137906;27;20684;-87
2022/08/10 02:43:03;;;;;;;4.45;3.75;;;15.50;74.00;;;;;;5138368;27;20199;-87
2022/08/10 02:45:38;;;;;;;6.63;3.58;;;15.50;74.10;;;;;;5132929;27;20219;-87
2022/08/10 02:48:11;;;;;;;4.78;3.20;;;15.50;74.70;;;;;;5134989;27;20198;-87
2022/08/10 02:50:42;;;;;;;4.60;3.65;;;15.40;75.00;;;;;;5128909;27;20207;-87
2022/08/10 02:53:15;;;;;;;6.75;3.40;;;15.40;76.00;;;;;;5139347;27;20199;-87
2022/08/10 02:55:49;;;;;;;4.25;3.55;;;15.40;75.30;;;;;;5126616;27;20206;-87
2022/08/10 02:58:22;;;;;;;3.97;3.38;;;15.30;75.20;;;;;;5135641;27;20213;-87
2022/08/10 03:00:54;;;;;;;3.85;3.28;;;15.40;75.40;;;;;;5125559;27;20202;-87
2022/08/10 03:03:24;;;;;;;4.43;3.65;;;15.30;75.40;;;;;;5136426;27;20210;-87
2022/08/10 03:05:56;;;;;;;3.90;3.33;;;15.30;75.60;;;;;;5123671;27;20202;-87
2022/08/10 03:08:27;;;;;;;6.55;3.25;;;15.30;75.00;;;;;;5134449;27;20203;-87
2022/08/10 03:10:56;;;;;;;5.93;3.40;;;15.30;75.30;;;;;;5128455;27;20310;-87
2022/08/10 03:13:24;;;;;;;5.78;3.55;;;15.30;75.40;;;;;;5128692;27;20199;-87
2022/08/10 03:15:55;;;;;;;3.60;3.17;;;15.20;75.60;;;;;;5134596;27;20206;-87
2022/08/10 03:18:24;;;;;;;3.80;3.50;;;15.20;76.10;;;;;;5135334;27;20293;-87
2022/08/10 03:20:52;;;;;;;4.90;3.30;;;15.20;76.40;;;;;;5143402;27;20695;-87
2022/08/10 03:23:21;;;;;;;4.60;3.33;;;15.10;75.90;;;;;;5132428;27;20199;-87
2022/08/10 03:25:52;;;;;;;3.30;3.05;;;15.10;76.30;;;;;;5145641;27;20202;-87
2022/08/10 03:28:19;;;;;;;5.70;3.33;;;15.10;77.40;;;;;;5148206;27;20206;-87
2022/08/10 03:30:46;;;;;;;4.95;3.28;;;15.00;78.20;;;;;;5146668;27;20302;-87
2022/08/10 03:33:17;;;;;;;5.55;3.40;;;15.00;77.30;;;;;;5135007;27;20207;-87
2022/08/10 03:35:43;;;;;;;4.63;3.22;;;15.00;78.50;;;;;;5134195;27;20206;-87
2022/08/10 03:38:10;;;;;;;5.05;3.60;;;14.90;77.20;;;;;;5134071;27;20195;-87
2022/08/10 03:40:38;;;;;;;5.35;3.20;;;14.90;79.00;;;;;;5139484;27;20231;-86
2022/08/10 03:43:07;;;;;;;4.78;3.35;;;14.90;78.10;;;;;;5139310;27;20200;-86
2022/08/10 03:45:36;;;;;;;3.92;3.10;;;14.80;78.50;;;;;;5140751;27;20202;-87
2022/08/10 03:48:05;;;;;;;5.10;3.47;;;14.80;80.00;;;;;;5140465;27;20582;-87
2022/08/10 03:50:35;;;;;;;6.88;3.97;;;14.80;79.40;;;;;;5137177;27;20696;-87
2022/08/10 03:53:03;;;;;;;4.75;3.58;;;14.70;80.90;;;;;;5141692;27;20227;-87
2022/08/10 03:55:31;;;;;;;5.72;3.65;;;14.60;81.10;;;;;;5137892;27;20205;-87
2022/08/10 03:57:58;;;;;;;4.32;3.50;;;14.50;81.00;;;;;;5139464;27;20202;-87
2022/08/10 04:00:27;;;;;;;4.55;3.85;;;14.60;81.30;;;;;;5133256;27;20203;-87
2022/08/10 04:02:56;;;;;;;4.82;3.88;;;14.50;81.20;;;;;;5130875;27;20230;-87
2022/08/10 04:05:23;;;;;;;4.18;3.53;;;14.50;81.30;;;;;;5135674;27;20218;-87
2022/08/10 04:07:52;;;;;;;3.97;3.67;;;14.50;81.10;;;;;;5125905;27;20212;-87
2022/08/10 04:10:19;;;;;;;4.70;3.60;;;14.50;81.50;;;;;;5122131;27;20204;-87
2022/08/10 04:12:45;;;;;;;5.35;3.85;;;14.50;82.40;;;;;;5137266;27;20609;-87
2022/08/10 04:15:12;;;;;;;5.13;3.80;;;14.50;80.60;;;;;;5138127;27;20700;-87
2022/08/10 04:17:39;;;;;;;4.25;3.50;;;14.60;79.80;;;;;;5138074;27;20669;-87
2022/08/10 04:20:10;;;;;;;3.80;3.40;;;14.60;79.80;;;;;;5133665;27;20674;-87
2022/08/10 04:22:39;;;;;;;4.50;3.83;;;14.50;80.20;;;;;;5134023;27;20201;-87
2022/08/10 04:25:10;;;;;;;4.22;3.55;;;14.60;80.40;;;;;;5138475;27;20569;-87
2022/08/10 04:27:37;;;;;;;5.57;3.75;;;14.60;80.20;;;;;;5137846;27;20210;-87
2022/08/10 04:30:05;;;;;;;4.25;3.65;;;14.60;80.50;;;;;;5127797;27;20593;-87
2022/08/10 04:32:33;;;;;;;3.83;3.50;;;14.60;79.60;;;;;;5136186;27;20214;-87
2022/08/10 04:35:03;;;;;;;3.55;3.22;;;14.70;79.00;;;;;;5133587;27;20207;-87
2022/08/10 04:37:31;;;;;;;5.05;3.50;;;14.70;78.40;;;;;;5133120;27;20200;-87
2022/08/10 04:39:58;;;;;;;6.93;3.38;;;14.70;78.90;;;;;;5135269;27;20582;-87
2022/08/10 04:42:26;;;;;;;3.42;3.10;;;14.80;78.70;;;;;;5132292;27;20199;-87
2022/08/10 04:44:53;;;;;;;5.05;3.70;;;14.80;78.80;;;;;;5125100;27;20223;-87
2022/08/10 04:47:20;;;;;;;4.70;3.58;;;14.90;78.90;;;;;;5135951;27;20202;-87
2022/08/10 04:49:47;;;;;;;3.22;2.92;;;14.90;79.60;;;;;;5135308;27;20682;-87
2022/08/10 04:52:16;;;;;;;6.10;3.42;;;14.90;79.50;;;;;;5135221;27;20225;-87
2022/08/10 04:54:43;;;;;;;3.65;3.08;;;14.90;77.90;;;;;;5134571;27;20650;-87
2022/08/10 04:57:11;;;;;;;5.38;3.58;;;15.00;77.30;;;;;;5133328;27;20207;-87
2022/08/10 04:59:39;;;;;;;3.53;3.03;;;15.00;77.30;;;;;;5145073;27;20199;-87
2022/08/10 05:02:06;;;;;;;3.47;3.17;;;15.00;77.30;;;;;;5140069;27;20205;-86
2022/08/10 05:04:32;;;;;;;5.03;3.08;;;15.10;77.40;;;;;;5145147;27;20234;-86
2022/08/10 05:06:59;;;;;;;4.85;3.22;;;15.10;76.30;;;;;;5146568;27;20675;-86
2022/08/10 05:09:26;;;;;;;4.38;2.80;;;15.20;75.50;;;;;;5146937;27;20222;-86
2022/08/10 05:11:53;;;;;;;3.88;3.15;;;15.20;74.10;;;;;;5134369;27;20218;-87
2022/08/10 05:14:20;;;;;;;3.90;2.85;;;15.20;74.40;;;;;;5132922;27;20191;-87
2022/08/10 05:16:48;;;;;;;3.72;2.83;;;15.30;73.20;;;;;;5138322;27;20540;-87
2022/08/10 05:19:15;;;;;;;5.20;2.92;;;15.40;72.00;;;;;;5134162;27;20207;-87
2022/08/10 05:21:43;;;;;;;4.13;2.80;;;15.50;72.70;;;;;;5137108;27;20213;-86
2022/08/10 05:24:10;;;;;;;3.75;3.08;;;15.50;73.80;;;;;;5136055;27;20199;-87
2022/08/10 05:26:37;;;;;;;7.60;3.50;;;15.60;73.50;;;;;;5129114;27;20226;-86
2022/08/10 05:29:04;;;;;;;3.28;2.95;;;15.60;71.20;;;;;;5136353;27;20204;-87
2022/08/10 05:31:30;;;;;;;5.00;2.40;;;15.80;68.60;;;;;;5137676;27;20205;-87
2022/08/10 05:33:59;;;;;;;3.55;2.72;;;15.90;66.30;;;;;;5138140;27;20202;-86
2022/08/10 05:36:26;;;;;;;5.05;2.92;;;16.00;66.00;;;;;;5132905;27;20657;-86
2022/08/10 05:38:53;;;;;;;3.95;2.95;;;16.10;65.80;;;;;;5128015;27;20227;-87
2022/08/10 05:41:20;;;;;;;7.93;2.90;;;16.10;65.50;;;;;;5118307;27;20191;-87
2022/08/10 05:43:48;;;;;;;5.88;2.65;;;16.20;63.50;;;;;;5130857;27;20222;-87
2022/08/10 05:46:14;;;;;;;3.53;2.70;;;16.30;63.30;;;;;;5137356;27;20657;-87
2022/08/10 05:48:42;;;;;;;3.38;2.55;;;16.30;62.90;;;;;;5137113;27;20201;-87
2022/08/10 05:51:11;;;;;;;6.40;2.88;;;16.40;63.80;;;;;;5134043;27;20198;-87
2022/08/10 05:53:38;;;;;;;4.20;2.85;;;16.50;60.70;;;;;;5127626;27;20218;-87
2022/08/10 05:56:07;;;;;;;3.95;2.70;;;16.60;59.10;;;;;;5136424;27;20195;-87
2022/08/10 05:58:36;;;;;;;4.32;2.60;;;16.80;57.60;;;;;;5126389;27;20245;-86
2022/08/10 06:01:06;;;;;;;3.53;2.75;;;16.90;55.20;;;;;;5136894;27;20203;-87
2022/08/10 06:03:37;;;;;;;4.15;2.50;;;16.90;55.50;;;;;;5136638;27;20203;-87
2022/08/10 06:06:08;;;;;;;4.50;2.50;;;17.00;54.90;;;;;;5136966;27;20213;-87
2022/08/10 06:08:40;;;;;;;4.18;2.20;;;17.10;53.30;;;;;;5136900;27;20206;-87
2022/08/10 06:11:12;;;;;;;4.43;2.80;;;17.20;53.30;;;;;;5127828;27;20643;-87
2022/08/10 06:16:42;;;;;;;6.13;2.80;;;17.30;53.50;;;;;;5093727;28;20228;-87
2022/08/10 06:19:10;;;;;;;4.55;2.50;;;17.30;53.40;;;;;;5093714;28;20205;-87
2022/08/10 06:21:38;;;;;;;4.47;2.50;;;17.30;54.40;;;;;;5094792;28;20211;-86
2022/08/10 06:24:09;;;;;;;3.95;2.60;;;17.40;53.50;;;;;;5091812;28;20193;-86
2022/08/10 06:26:36;;;;;;;4.38;2.60;;;17.60;53.70;;;;;;5085395;28;20201;-86
2022/08/10 06:29:13;;;;;;;5.47;2.65;;;17.70;53.80;;;;;;5088077;28;21945;-86
2022/08/10 06:31:44;;;;;;;5.57;2.60;;;17.70;53.80;;;;;;5085072;28;20208;-86
2022/08/10 06:34:12;;;;;;;4.60;2.45;;;17.90;54.00;;;;;;5086672;28;20201;-87
2022/08/10 06:36:42;;;;;;;2.40;2.20;;;18.00;50.50;;;;;;5093106;28;20201;-86
2022/08/10 06:39:11;;;;;;;4.63;2.40;;;18.10;50.70;;;;;;5093759;28;20283;-87
2022/08/10 06:41:46;;;;;;;2.30;2.10;;;18.20;51.30;;;;;;5091899;28;20205;-87
2022/08/10 06:44:25;;;;;;;3.60;2.38;;;18.20;49.80;;;;;;5089025;28;20274;-87
2022/08/10 06:46:56;;;;;;;6.88;2.88;;;18.40;48.40;;;;;;5101485;27;20203;-87
2022/08/10 06:49:24;;;;;;;4.28;2.20;;;18.40;48.10;;;;;;5136779;27;20203;-87
2022/08/10 06:51:54;;;;;;;4.65;2.30;;;18.60;47.70;;;;;;5140523;27;20210;-87
2022/08/10 06:54:25;;;;;;;2.92;2.20;;;18.70;46.50;;;;;;5144001;27;20199;-87
2022/08/10 06:56:56;;;;;;;5.03;2.40;;;18.80;46.00;;;;;;5138331;27;20207;-87
2022/08/10 06:59:27;;;;;;;7.13;2.45;;;18.90;45.90;;;;;;5137941;27;20207;-87
2022/08/10 07:02:00;;;;;;;8.02;2.40;;;19.00;45.60;;;;;;5137500;27;20206;-87
2022/08/10 07:04:30;;;;;;;4.60;2.25;;;19.10;43.00;;;;;;5137009;27;20201;-87
2022/08/10 07:06:59;;;;;;;5.07;2.63;;;19.30;42.00;;;;;;5136206;27;20202;-87
2022/08/10 07:09:30;;;;;;;4.72;2.13;;;19.30;43.10;;;;;;5134178;27;20207;-87
2022/08/10 07:11:59;;;;;;;5.55;2.50;;;19.40;42.70;;;;;;5132477;27;20570;-87
2022/08/10 07:14:27;;;;;;;3.47;2.05;;;19.50;43.40;;;;;;5134917;27;20203;-87
2022/08/10 07:16:56;;;;;;;3.33;2.40;;;19.50;45.20;;;;;;5136092;27;20315;-87
2022/08/10 07:19:25;;;;;;;5.55;2.30;;;19.60;43.80;;;;;;5135703;27;20199;-87
2022/08/10 07:21:52;;;;;;;3.53;2.05;;;19.70;40.50;;;;;;5121141;27;20204;-87
2022/08/10 07:24:22;;;;;;;3.33;1.88;;;19.80;41.50;;;;;;5133925;27;20199;-87
2022/08/10 07:26:54;;;;;;;3.80;2.25;;;20.10;36.40;;;;;;5131428;27;20210;-87
2022/08/10 07:29:26;;;;;;;3.53;2.03;;;20.20;37.40;;;;;;5141759;27;20205;-86
2022/08/10 07:31:55;;;;;;;4.75;2.13;;;20.20;35.00;;;;;;5141637;27;20210;-87
2022/08/10 07:34:24;;;;;;;3.58;2.00;;;20.30;32.30;;;;;;5136322;27;20661;-87
2022/08/10 07:36:52;;;;;;;3.45;1.98;;;20.50;32.50;;;;;;5124688;27;20650;-87
2022/08/10 07:39:20;;;;;;;2.75;2.00;;;20.60;32.50;;;;;;5136557;27;20198;-86
2022/08/10 07:42:02;;;;;;;7.88;2.10;;;20.70;32.60;;;;;;5151875;27;20198;-86
2022/08/10 07:44:33;;;;;;;3.85;2.00;;;20.80;31.50;;;;;;5144884;27;20210;-86
2022/08/10 07:47:02;;;;;;;5.25;2.00;;;20.90;31.50;;;;;;5127861;27;20203;-86
2022/08/10 07:49:37;;;;;;;5.40;2.00;;;21.00;28.70;;;;;;5136077;27;20219;-84
2022/08/10 07:52:07;;;;;;;4.22;1.88;;;21.10;28.50;;;;;;5124018;27;20771;-86
2022/08/10 07:54:39;;;;;;;2.75;1.90;;;21.20;26.40;;;;;;5134594;27;20672;-86
2022/08/10 07:57:12;;;;;;;4.97;2.15;;;21.30;26.40;;;;;;5135348;27;20199;-86
2022/08/10 07:59:43;;;;;;;3.88;2.00;;;21.40;24.80;;;;;;5137687;27;20196;-86
2022/08/10 08:02:24;;;;;;;2.83;1.80;;;21.40;25.10;;;;;;5128488;27;20605;-86
2022/08/10 08:04:53;;;;;;;2.70;2.05;;;21.40;24.10;;;;;;5142784;27;20203;-86
2022/08/10 08:07:21;;;;;;;2.60;1.70;;;21.50;25.10;;;;;;5152628;27;20198;-86
2022/08/10 08:09:50;;;;;;;2.63;1.85;;;21.60;23.20;;;;;;5154232;27;20206;-86
2022/08/10 08:12:19;;;;;;;4.63;2.00;;;21.60;23.80;;;;;;5149831;27;20286;-86
2022/08/10 08:14:50;;;;;;;4.60;2.03;;;21.80;24.70;;;;;;5144430;27;20569;-86
2022/08/10 08:17:18;;;;;;;3.35;2.20;;;21.80;24.50;;;;;;5145438;27;20191;-86
2022/08/10 08:19:48;;;;;;;3.17;1.50;;;21.90;23.50;;;;;;5132988;27;20589;-86
2022/08/10 08:22:17;;;;;;;3.08;1.73;;;21.90;22.80;;;;;;5135656;27;20191;-86
2022/08/10 08:24:47;;;;;;;5.95;1.95;;;22.00;22.80;;;;;;5142823;27;20194;-86
2022/08/10 08:27:20;;;;;;;2.88;1.80;;;22.10;22.00;;;;;;5138922;27;20211;-86
2022/08/10 08:29:49;;;;;;;4.60;1.98;;;22.10;20.90;;;;;;5141104;27;20244;-86
2022/08/10 08:32:21;;;;;;;6.45;1.60;;;22.20;20.70;;;;;;5129809;27;20202;-86
2022/08/10 08:34:49;;;;;;;3.35;1.80;;;22.20;20.80;;;;;;5131668;27;20203;-86
2022/08/10 08:37:19;;;;;;;2.47;1.70;;;22.30;21.10;;;;;;5143844;27;20588;-86
2022/08/10 08:39:47;;;;;;;3.33;1.90;;;22.40;20.90;;;;;;5135441;27;20199;-87
2022/08/10 08:42:37;;;;;;;3.13;1.80;;;22.50;20.60;;;;;;5136589;27;20292;-86
2022/08/10 08:45:11;;;;;;;2.88;1.80;;;22.60;19.80;;;;;;5126523;28;20225;-86
2022/08/10 08:48:13;;;;;;;5.00;2.05;;;22.70;19.80;;;;;;5136362;27;20193;-86
2022/08/10 08:50:55;;;;;;;6.72;2.28;;;22.80;19.60;;;;;;5123842;27;20203;-86
2022/08/10 08:53:44;;;;;;;3.67;1.85;;;22.80;19.20;;;;;;5124127;28;20223;-86
2022/08/10 08:56:20;;;;;;;2.47;1.65;;;22.90;19.10;;;;;;5138678;27;20206;-86
2022/08/10 08:59:05;;;;;;;4.72;1.70;;;23.20;18.80;;;;;;5135720;27;20191;-86
2022/08/10 09:01:48;;;;;;;4.00;1.70;;;23.40;18.00;;;;;;5138609;27;20195;-86
2022/08/10 09:04:37;;;;;;;2.47;1.88;;;23.80;16.60;;;;;;5145345;27;20207;-84
2022/08/10 09:07:42;;;;;;;5.25;1.60;;;24.70;15.50;;;;;;5135228;27;20191;-82
2022/08/10 09:10:19;;;;;;;3.35;1.80;;;25.40;14.30;;;;;;5144463;27;20198;-82
2022/08/10 09:12:53;;;;;;;3.35;1.90;;;26.20;14.70;;;;;;5142550;27;20250;-84
2022/08/10 09:15:30;;;;;;;3.35;1.75;;;27.00;12.30;;;;;;5142503;27;20182;-84
2022/08/10 09:18:07;;;;;;;2.28;1.70;;;27.90;11.30;;;;;;5141156;27;20194;-85
2022/08/10 09:20:39;;;;;;;3.13;2.05;;;30.10;8.20;;;;;;5129781;27;20686;-85
2022/08/10 09:23:36;;;;;;;3.53;2.00;;;31.10;5.30;;;;;;5146736;27;20199;-85
2022/08/10 09:26:11;;;;;;;2.95;2.10;;;31.70;4.30;;;;;;5135996;27;20222;-85
2022/08/10 09:28:47;;;;;;;5.50;2.00;;;32.50;4.70;;;;;;5140470;27;20191;-85
2022/08/10 09:31:20;;;;;;;3.20;1.80;;;32.30;4.30;;;;;;5139538;27;20220;-85
2022/08/10 09:34:07;;;;;;;4.70;2.00;;;32.90;2.30;;;;;;5138160;27;20214;-85
2022/08/10 09:36:43;;;;;;;3.75;2.20;;;33.00;2.10;;;;;;5126388;27;20198;-86
2022/08/10 09:39:18;;;;;;;4.38;2.30;;;32.80;2.50;;;;;;5123854;27;20673;-86
2022/08/10 09:41:51;;;;;;;2.17;1.90;;;32.50;2.70;;;;;;5140294;27;20621;-85
2022/08/10 09:44:29;;;;;;;3.85;2.13;;;32.80;2.30;;;;;;5139784;27;20602;-85
2022/08/10 09:47:09;;;;;;;2.33;1.92;;;32.40;2.20;;;;;;5139297;27;20187;-85
2022/08/10 09:49:42;;;;;;;3.35;2.05;;;33.20;1.10;;;;;;5137348;27;20184;-85
2022/08/10 09:52:17;;;;;;;3.10;1.80;;;33.20;1.00;;;;;;5120104;28;20209;-85
2022/08/10 09:54:54;;;;;;;2.13;1.92;;;32.10;2.30;;;;;;5136753;27;20218;-85
2022/08/10 09:57:30;;;;;;;6.15;2.50;;;32.20;2.40;;;;;;5134204;27;20205;-85
2022/08/10 10:00:03;;;;;;;5.78;2.45;;;32.70;2.60;;;;;;5133479;27;20197;-85
2022/08/10 10:02:42;;;;;;;2.22;2.08;;;33.10;1.50;;;;;;5144641;27;20215;-85
2022/08/10 10:05:18;;;;;;;4.82;2.30;;;33.70;1.00;;;;;;5143888;27;20559;-86
2022/08/10 10:07:53;;;;;;;4.30;2.30;;;33.60;1.40;;;;;;5144135;27;20190;-86
2022/08/10 10:10:28;;;;;;;4.30;2.38;;;33.10;2.40;;;;;;5141995;27;20191;-85
2022/08/10 10:12:59;;;;;;;4.68;2.30;;;33.00;2.00;;;;;;5143585;27;20210;-86
2022/08/10 10:15:35;;;;;;;4.03;2.42;;;33.80;1.00;;;;;;5144554;27;20579;-86
2022/08/10 10:18:31;;;;;;;3.38;2.45;;;33.40;3.40;;;;;;5144762;27;20205;-86
2022/08/10 10:21:05;;;;;;;3.47;2.40;;;33.70;1.10;;;;;;5101987;28;20212;-85
2022/08/10 10:23:51;;;;;;;3.72;2.40;;;34.20;1.00;;;;;;5096119;28;20204;-86
2022/08/10 10:26:24;;;;;;;4.45;2.53;;;33.70;2.40;;;;;;5099376;28;20203;-86
2022/08/10 10:29:29;;;;;;;3.42;2.60;;;33.70;2.20;;;;;;5096281;28;20270;-86
2022/08/10 10:32:03;;;;;;;2.47;2.20;;;33.50;3.80;;;;;;5098840;28;20203;-86
2022/08/10 10:34:40;;;;;;;3.22;2.47;;;33.60;1.20;;;;;;5098525;28;20210;-86
2022/08/10 10:37:09;;;;;;;4.07;2.50;;;33.70;1.90;;;;;;5098989;28;20205;-86
2022/08/10 10:39:51;;;;;;;6.43;2.50;;;33.10;3.10;;;;;;5099992;28;20201;-85
2022/08/10 10:42:35;;;;;;;7.45;2.55;;;32.50;3.90;;;;;;5099601;28;20200;-85
2022/08/10 10:45:15;;;;;;;3.42;2.40;;;32.90;4.70;;;;;;5095781;28;20220;-85
2022/08/10 10:48:05;;;;;;;4.03;2.40;;;32.70;3.20;;;;;;5094318;28;20196;-86
2022/08/10 10:50:49;;;;;;;8.90;2.40;;;32.70;4.00;;;;;;5083367;28;20207;-85
2022/08/10 10:53:27;;;;;;;6.65;2.47;;;32.60;3.70;;;;;;5092667;28;20204;-85
2022/08/10 10:56:02;;;;;;;4.20;2.35;;;31.70;5.60;;;;;;5092310;28;20204;-85
2022/08/10 10:58:36;;;;;;;5.75;2.20;;;31.00;5.50;;;;;;5112348;27;20201;-85
2022/08/10 11:01:11;;;;;;;3.88;1.98;;;31.00;5.80;;;;;;5137254;27;20562;-85
2022/08/10 11:03:52;;;;;;;3.30;1.88;;;30.80;5.70;;;;;;5138087;27;20206;-84
2022/08/10 11:06:27;;;;;;;5.38;2.20;;;30.60;6.30;;;;;;5126950;27;20282;-85
2022/08/10 11:08:59;;;;;;;5.07;1.88;;;29.90;7.00;;;;;;5136166;27;20190;-85
2022/08/10 11:11:38;;;;;;;5.95;2.15;;;29.70;6.90;;;;;;5128003;27;20203;-84
2022/08/10 11:14:16;;;;;;;5.15;1.90;;;29.10;7.80;;;;;;5133111;27;20218;-84
2022/08/10 11:16:47;;;;;;;8.40;2.00;;;28.30;9.30;;;;;;5131984;27;20197;-84
2022/08/10 11:19:23;;;;;;;4.72;1.65;;;27.90;10.40;;;;;;5124296;27;20195;-84
2022/08/10 11:22:03;;;;;;;6.25;2.00;;;27.70;10.00;;;;;;5137410;27;20198;-81
2022/08/10 11:24:43;;;;;;;2.63;1.70;;;27.50;10.20;;;;;;5132644;27;20659;-81
2022/08/10 11:27:17;;;;;;;3.83;1.85;;;27.40;10.80;;;;;;5127813;27;20206;-82
2022/08/10 11:29:50;;;;;;;4.28;1.80;;;27.20;11.00;;;;;;5126401;27;20199;-81
2022/08/10 11:32:32;;;;;;;4.47;1.63;;;27.30;11.00;;;;;;5141262;27;20202;-81
2022/08/10 11:35:06;;;;;;;4.82;1.73;;;27.20;11.10;;;;;;5125705;27;20216;-81
2022/08/10 11:37:41;;;;;;;5.78;1.85;;;27.30;11.00;;;;;;5135068;27;20256;-84
2022/08/10 11:40:19;;;;;;;4.03;1.70;;;27.00;12.90;;;;;;5131249;27;20195;-84
2022/08/10 11:43:09;;;;;;;4.53;2.17;;;27.00;12.00;;;;;;5140142;27;20564;-84
2022/08/10 11:45:41;;;;;;;3.15;1.50;;;27.10;11.10;;;;;;5147284;27;20633;-82
2022/08/10 11:48:32;;;;;;;2.92;1.60;;;27.00;11.50;;;;;;5140074;27;20199;-84
2022/08/10 11:51:11;;;;;;;3.53;1.83;;;26.90;11.30;;;;;;5137665;27;20199;-84
2022/08/10 11:53:48;;;;;;;2.22;1.67;;;26.60;12.80;;;;;;5140548;27;20681;-84
2022/08/10 11:56:25;;;;;;;3.10;1.65;;;26.60;11.50;;;;;;5141490;27;20195;-83
2022/08/10 12:01:38;;;;;;;4.82;1.80;;;26.40;11.60;;;;;;5129884;27;20216;-84
2022/08/10 12:04:07;;;;;;;6.10;1.50;;;26.40;11.70;;;;;;5142477;27;20269;-84
2022/08/10 12:06:36;;;;;;;2.40;1.50;;;26.30;12.20;;;;;;5139916;27;20591;-84
2022/08/10 12:09:06;;;;;;;4.20;1.70;;;26.30;12.10;;;;;;5141783;27;20263;-84
2022/08/10 12:11:34;;;;;;;1.60;1.48;;;26.40;11.70;;;;;;5128903;27;20224;-84
2022/08/10 12:14:07;;;;;;;2.17;1.50;;;26.40;11.90;;;;;;5129647;27;20295;-84
2022/08/10 12:16:39;;;;;;;3.17;1.77;;;26.50;10.50;;;;;;5139964;27;20192;-84
2022/08/10 12:19:20;;;;;;;4.18;1.55;;;26.40;10.20;;;;;;5141413;27;20195;-83
2022/08/10 12:21:50;;;;;;;2.28;1.70;;;26.40;10.50;;;;;;5140287;27;20202;-84
2022/08/10 12:24:37;;;;;;;2.47;1.50;;;26.40;11.80;;;;;;5141745;27;20195;-84
2022/08/10 12:27:10;;;;;;;1.35;1.20;;;26.40;10.90;;;;;;5140425;27;20195;-84
2022/08/10 12:29:43;;;;;;;1.92;1.60;;;26.40;10.10;;;;;;5144122;27;20206;-83
2022/08/10 12:32:16;;;;;;;3.65;1.50;;;26.40;11.10;;;;;;5141858;27;20191;-83
2022/08/10 12:34:49;;;;;;;2.38;1.60;;;26.40;11.40;;;;;;5139483;27;20251;-83
2022/08/10 12:37:22;;;;;;;4.78;1.52;;;26.40;11.00;;;;;;5140993;27;20205;-84
2022/08/10 12:40:03;;;;;;;3.20;1.70;;;26.40;11.00;;;;;;5139940;27;20218;-84
2022/08/10 12:42:37;;;;;;;3.35;1.55;;;26.60;11.30;;;;;;5125099;27;20686;-84
2022/08/10 12:45:12;;;;;;;2.58;1.38;;;26.60;11.70;;;;;;5139302;27;20234;-84
2022/08/10 12:47:50;;;;;;;2.67;1.70;;;26.70;11.10;;;;;;5125771;27;20685;-82
2022/08/10 12:50:21;;;;;;;3.65;1.80;;;26.80;10.30;;;;;;5141368;27;20199;-82
2022/08/10 12:52:57;;;;;;;4.63;1.65;;;26.90;10.30;;;;;;5132122;27;20195;-81
2022/08/10 12:55:28;;;;;;;7.93;1.70;;;26.80;10.90;;;;;;5138438;27;20232;-84
2022/08/10 12:57:57;;;;;;;3.53;1.45;;;26.60;10.90;;;;;;5149801;27;20198;-84
2022/08/10 13:00:31;;;;;;;4.35;1.55;;;26.50;11.50;;;;;;5128006;28;20195;-81
2022/08/10 13:03:00;;;;;;;1.70;1.42;;;26.50;10.80;;;;;;5140708;27;20211;-81
2022/08/10 13:05:28;;;;;;;4.50;1.55;;;26.60;11.50;;;;;;5127720;28;20203;-84
2022/08/10 13:10:48;;;;;;;3.35;1.65;;;26.60;11.60;;;;;;5120178;28;20187;-84
2022/08/10 13:13:21;;;;;;;5.22;1.60;;;26.60;10.60;;;;;;5134743;27;20609;-84
2022/08/10 13:15:49;;;;;;;1.98;1.40;;;26.60;10.90;;;;;;5139441;27;20226;-82
2022/08/10 13:18:18;;;;;;;1.77;1.30;;;26.50;10.30;;;;;;5141044;27;20676;-82
2022/08/10 13:20:50;;;;;;;5.50;1.67;;;26.50;10.40;;;;;;5128246;27;20195;-84
2022/08/10 13:23:21;;;;;;;6.20;1.67;;;26.50;11.60;;;;;;5137507;27;20199;-84
2022/08/10 13:25:52;;;;;;;4.35;1.63;;;26.60;10.60;;;;;;5125388;27;20187;-83